Time;durP1;ratioP1;P1;durP2;ratioP2;P2;SDS_P1;SDS_P2;PMS_P1;PMS_P2;Temp;Humidity;BMP_temperature;BMP_pressure;BME280_temperature;BME280_humidity;BME280_pressure;Samples;Min_cycle;Max_cycle;Signal;HPM_P1;HPM_P2
2023/05/31 00:01:53;;;;;;;11.23;8.13;;;;;;;11.40;100.00;101913.78;4931092;29;20043;-79
2023/05/31 00:04:19;;;;;;;11.10;8.13;;;;;;;11.40;100.00;101911.16;4932813;29;20042;-80
2023/05/31 00:06:47;;;;;;;8.88;7.20;;;;;;;11.37;100.00;101907.66;4913217;29;20051;-82
2023/05/31 00:09:14;;;;;;;14.45;7.63;;;;;;;11.36;100.00;101916.38;4934552;29;20054;-80
2023/05/31 00:11:40;;;;;;;12.02;8.00;;;;;;;11.33;100.00;101913.72;4918559;29;20130;-79
2023/05/31 00:14:07;;;;;;;10.98;8.10;;;;;;;11.32;100.00;101912.84;4916242;29;20371;-89
2023/05/31 00:16:34;;;;;;;9.30;7.15;;;;;;;11.28;100.00;101916.31;4934038;29;20041;-83
2023/05/31 00:19:00;;;;;;;10.13;7.22;;;;;;;11.24;100.00;101920.66;4932306;29;20054;-81
2023/05/31 00:21:27;;;;;;;10.85;8.10;;;;;;;11.23;100.00;101925.91;4920081;29;20043;-80
2023/05/31 00:23:53;;;;;;;10.70;7.35;;;;;;;11.20;100.00;101923.25;4934762;29;20039;-81
2023/05/31 00:26:21;;;;;;;10.55;7.18;;;;;;;11.17;100.00;101925.81;4919765;29;20048;-80
2023/05/31 00:28:47;;;;;;;7.75;5.88;;;;;;;11.18;100.00;101917.09;4936003;29;20040;-80
2023/05/31 00:31:14;;;;;;;10.73;6.80;;;;;;;11.18;100.00;101917.09;4930225;29;20044;-82
2023/05/31 00:33:40;;;;;;;8.02;6.13;;;;;;;11.15;100.00;101911.84;4939469;29;20047;-80
2023/05/31 00:36:07;;;;;;;7.95;6.35;;;;;;;11.11;100.00;101913.56;4927536;29;20046;-80
2023/05/31 00:38:33;;;;;;;7.43;6.68;;;;;;;11.09;100.00;101908.31;4935257;29;20095;-89
2023/05/31 00:40:59;;;;;;;9.73;7.10;;;;;;;11.05;100.00;101911.75;4934802;29;20491;-80
2023/05/31 00:43:26;;;;;;;10.40;7.32;;;;;;;11.06;100.00;101913.50;4935712;29;20055;-81
2023/05/31 00:45:52;;;;;;;8.23;5.97;;;;;;;11.01;100.00;101914.34;4918486;29;20050;-81
2023/05/31 00:48:19;;;;;;;15.60;7.82;;;;;;;10.98;100.00;101915.19;4934823;29;20071;-81
2023/05/31 00:50:46;;;;;;;9.82;7.65;;;;;;;10.92;100.00;101912.50;4927572;29;20040;-80
2023/05/31 00:53:13;;;;;;;12.90;8.50;;;;;;;10.91;100.00;101915.97;4924652;29;20040;-81
2023/05/31 00:55:39;;;;;;;11.25;7.30;;;;;;;10.89;100.00;101923.81;4933470;29;20051;-81
2023/05/31 00:58:06;;;;;;;14.45;9.23;;;;;;;10.84;100.00;101927.28;4934206;29;20040;-83
2023/05/31 01:00:32;;;;;;;11.63;8.07;;;;;;;10.80;100.00;101921.13;4917352;29;20050;-85
2023/05/31 01:03:02;;;;;;;10.07;7.90;;;;;;;10.80;100.00;101928.97;4932470;29;20073;-80
2023/05/31 01:05:28;;;;;;;13.10;8.77;;;;;;;10.76;100.00;101928.06;4909454;29;20423;-88
2023/05/31 01:07:55;;;;;;;8.93;7.05;;;;;;;10.72;100.00;101914.94;4927440;29;20044;-80
2023/05/31 01:10:22;;;;;;;11.27;7.35;;;;;;;10.70;100.00;101925.38;4929380;29;20054;-81
2023/05/31 01:13:18;;;;;;;14.57;8.15;;;;;;;10.71;100.00;101923.63;4932737;29;20383;-80
2023/05/31 01:15:56;;;;;;;12.15;7.57;;;;;;;10.68;100.00;101927.09;4931151;29;20044;-82
2023/05/31 01:18:44;;;;;;;11.40;7.93;;;;;;;10.63;100.00;101922.69;4946606;29;20479;-82
2023/05/31 01:21:19;;;;;;;9.48;7.75;;;;;;;10.63;100.00;101922.69;4922719;29;20043;-82
2023/05/31 01:24:51;;;;;;;12.10;7.55;;;;;;;10.61;100.00;101925.25;4914591;29;20055;-83
2023/05/31 01:27:18;;;;;;;12.48;8.65;;;;;;;10.52;100.00;101926.06;4897246;29;20075;-82
2023/05/31 01:29:45;;;;;;;14.68;8.18;;;;;;;10.48;100.00;101919.03;4931985;29;20048;-80
2023/05/31 01:32:14;;;;;;;12.93;9.02;;;;;;;10.44;100.00;101922.44;4929154;29;20475;-83
2023/05/31 01:34:40;;;;;;;9.20;7.10;;;;;;;10.38;100.00;101927.63;4932448;29;20131;-81
2023/05/31 01:37:07;;;;;;;12.93;8.15;;;;;;;10.32;100.00;101931.00;4914995;29;20051;-81
2023/05/31 01:39:34;;;;;;;10.73;7.07;;;;;;;10.30;100.00;101931.84;4932587;29;20043;-83
2023/05/31 01:42:01;;;;;;;13.18;7.13;;;;;;;10.29;100.00;101930.09;4932186;29;20040;-81
2023/05/31 01:44:28;;;;;;;12.10;7.30;;;;;;;10.25;100.00;101934.41;4917839;29;20044;-79
2023/05/31 01:46:55;;;;;;;14.18;7.63;;;;;;;10.24;100.00;101932.66;4916667;29;20055;-80
2023/05/31 01:49:22;;;;;;;14.98;7.90;;;;;;;10.24;100.00;101930.03;4931807;29;20479;-83
2023/05/31 01:51:50;;;;;;;12.98;8.57;;;;;;;10.20;100.00;101923.88;4932756;29;20047;-80
2023/05/31 01:54:17;;;;;;;15.23;8.82;;;;;;;10.18;100.00;101928.22;4938655;29;20047;-83
2023/05/31 01:56:46;;;;;;;10.57;8.40;;;;;;;10.16;100.00;101924.69;4932330;29;20403;-79
2023/05/31 01:59:14;;;;;;;12.38;8.15;;;;;;;10.14;100.00;101922.91;4929691;29;20050;-82
2023/05/31 02:01:41;;;;;;;17.23;8.88;;;;;;;10.10;100.00;101920.28;4914481;29;20130;-80
2023/05/31 02:04:08;;;;;;;10.52;8.15;;;;;;;10.09;100.00;101915.88;4931500;29;20043;-79
2023/05/31 02:06:38;;;;;;;13.93;7.95;;;;;;;10.06;100.00;101920.19;4916014;29;20062;-80
2023/05/31 02:09:07;;;;;;;14.50;8.52;;;;;;;9.99;100.00;101918.38;4930807;29;20048;-79
2023/05/31 02:11:33;;;;;;;13.02;8.25;;;;;;;9.95;100.00;101914.81;4917521;29;20447;-86
2023/05/31 02:13:59;;;;;;;12.93;8.38;;;;;;;9.89;100.00;101912.13;4929794;29;20049;-80
2023/05/31 02:16:26;;;;;;;13.40;9.02;;;;;;;9.84;100.00;101913.78;4907241;29;20055;-87
2023/05/31 02:18:53;;;;;;;12.50;8.23;;;;;;;9.82;100.00;101911.16;4930516;29;20051;-82
2023/05/31 02:21:19;;;;;;;12.40;8.85;;;;;;;9.77;100.00;101913.69;4916931;29;20096;-80
2023/05/31 02:23:46;;;;;;;16.98;9.38;;;;;;;9.72;100.00;101922.34;4874387;29;20040;-86
2023/05/31 02:26:12;;;;;;;13.50;9.35;;;;;;;9.68;100.00;101913.56;4903550;29;20066;-80
2023/05/31 02:28:38;;;;;;;13.23;9.27;;;;;;;9.62;100.00;101913.47;4904456;29;20050;-81
2023/05/31 02:31:05;;;;;;;18.08;9.68;;;;;;;9.57;100.00;101916.00;4892924;29;20044;-80
2023/05/31 02:33:32;;;;;;;16.95;10.65;;;;;;;9.52;100.00;101917.66;4900845;29;20043;-78
2023/05/31 02:35:58;;;;;;;12.88;9.75;;;;;;;9.50;100.00;101928.97;4904828;29;20132;-83
2023/05/31 02:38:26;;;;;;;14.73;9.85;;;;;;;9.46;100.00;101929.78;4908133;29;20048;-82
2023/05/31 02:40:52;;;;;;;9.90;8.23;;;;;;;9.43;100.00;101923.63;4899403;29;20054;-84
2023/05/31 02:43:19;;;;;;;15.82;10.25;;;;;;;9.40;100.00;101918.38;4898921;29;20040;-80
2023/05/31 02:45:45;;;;;;;19.75;11.00;;;;;;;9.36;100.00;101921.78;4904981;29;20079;-82
2023/05/31 02:48:12;;;;;;;14.20;10.57;;;;;;;9.31;100.00;101913.00;4902007;29;20048;-80
2023/05/31 02:50:41;;;;;;;15.75;9.23;;;;;;;9.25;100.00;101905.91;4905320;29;20491;-84
2023/05/31 02:53:08;;;;;;;14.68;10.55;;;;;;;9.25;100.00;101913.75;4899830;29;20562;-80
2023/05/31 02:55:34;;;;;;;15.35;10.50;;;;;;;9.23;100.00;101907.63;4899541;29;20059;-80
2023/05/31 02:58:01;;;;;;;17.33;9.60;;;;;;;9.19;100.00;101900.59;4895765;29;20052;-79
2023/05/31 03:00:28;;;;;;;17.60;11.68;;;;;;;9.18;100.00;101911.91;4895119;29;20479;-91
2023/05/31 03:02:55;;;;;;;15.63;10.93;;;;;;;9.18;100.00;101911.03;4898437;29;20048;-80
2023/05/31 03:05:23;;;;;;;16.85;10.48;;;;;;;9.15;100.00;101909.25;4883467;29;20472;-83
2023/05/31 03:07:49;;;;;;;16.75;11.68;;;;;;;9.16;100.00;101904.88;4901316;29;20040;-85
2023/05/31 03:10:16;;;;;;;13.52;9.60;;;;;;;9.16;100.00;101903.13;4886956;29;20492;-81
2023/05/31 03:12:42;;;;;;;12.73;9.98;;;;;;;9.18;100.00;101909.28;4900385;29;20041;-81
2023/05/31 03:15:09;;;;;;;17.02;10.32;;;;;;;9.19;100.00;101907.53;4900854;29;20390;-79
2023/05/31 03:17:37;;;;;;;16.48;10.55;;;;;;;9.14;100.00;101910.09;4899971;29;20141;-83
2023/05/31 03:20:09;;;;;;;17.30;11.95;;;;;;;9.15;100.00;101908.34;4900656;29;20060;-83
2023/05/31 03:22:36;;;;;;;19.77;11.15;;;;;;;9.15;100.00;101906.63;4901837;29;20047;-79
2023/05/31 03:25:04;;;;;;;18.02;12.55;;;;;;;9.20;100.00;101914.53;4899632;29;20428;-80
2023/05/31 03:27:32;;;;;;;25.02;10.65;;;;;;;9.22;100.00;101918.06;4898635;29;20048;-78
2023/05/31 03:29:59;;;;;;;15.15;10.95;;;;;;;9.22;100.00;101910.22;4905500;29;20063;-83
2023/05/31 03:32:26;;;;;;;16.13;10.63;;;;;;;9.21;100.00;101911.94;4910431;29;20704;-79
2023/05/31 03:34:52;;;;;;;17.30;10.82;;;;;;;9.22;100.00;101915.44;4918374;29;20076;-85
2023/05/31 03:37:19;;;;;;;17.73;12.90;;;;;;;9.25;100.00;101905.91;4907823;29;20055;-86
2023/05/31 03:39:45;;;;;;;16.77;11.73;;;;;;;9.27;100.00;101906.81;4923374;29;20043;-80
2023/05/31 03:42:11;;;;;;;18.75;10.75;;;;;;;9.22;100.00;101915.44;4910602;29;20043;-79
2023/05/31 03:44:39;;;;;;;15.90;9.48;;;;;;;9.20;100.00;101910.16;4917495;29;20076;-80
2023/05/31 03:47:06;;;;;;;13.07;9.90;;;;;;;9.21;100.00;101911.06;4907737;29;20071;-84
2023/05/31 03:49:32;;;;;;;16.10;10.10;;;;;;;9.23;100.00;101919.78;4880201;29;20175;-79
2023/05/31 03:51:58;;;;;;;20.63;11.38;;;;;;;9.26;100.00;101907.66;4898691;29;20050;-78
2023/05/31 03:54:25;;;;;;;18.98;12.02;;;;;;;9.29;100.00;101913.81;4914895;29;20720;-83
2023/05/31 03:56:51;;;;;;;14.82;9.95;;;;;;;9.30;100.00;101910.34;4897578;29;20099;-80
2023/05/31 03:59:21;;;;;;;17.85;9.82;;;;;;;9.35;100.00;101912.19;4905187;29;20048;-79
2023/05/31 04:01:47;;;;;;;12.00;8.90;;;;;;;9.38;100.00;101914.84;4906112;29;20443;-84
2023/05/31 04:04:14;;;;;;;16.90;10.02;;;;;;;9.42;100.00;101908.78;4891652;29;20056;-86
2023/05/31 04:06:40;;;;;;;14.27;10.30;;;;;;;9.44;100.00;101909.72;4927155;29;20131;-79
2023/05/31 04:09:07;;;;;;;16.27;10.00;;;;;;;9.46;100.00;101899.28;4890051;29;20484;-79
2023/05/31 04:11:33;;;;;;;19.20;11.43;;;;;;;9.53;100.00;101901.13;4901498;29;20431;-80
2023/05/31 04:14:00;;;;;;;15.40;10.35;;;;;;;9.57;100.00;101905.56;4901777;29;20050;-79
2023/05/31 04:16:26;;;;;;;16.48;11.13;;;;;;;9.62;100.00;101902.13;4911988;29;20052;-80
2023/05/31 04:18:52;;;;;;;15.20;10.18;;;;;;;9.63;100.00;101904.75;4916840;29;20048;-82
2023/05/31 04:21:19;;;;;;;14.52;10.38;;;;;;;9.68;100.00;101907.47;4909892;29;20048;-90
2023/05/31 04:23:46;;;;;;;15.40;9.73;;;;;;;9.74;100.00;101903.19;4917512;29;20067;-79
2023/05/31 04:26:16;;;;;;;13.32;9.48;;;;;;;9.83;100.00;101907.69;4910306;29;20040;-79
2023/05/31 04:28:43;;;;;;;13.02;10.30;;;;;;;9.90;100.00;101898.19;4915503;29;20245;-79
2023/05/31 04:31:11;;;;;;;14.00;10.38;;;;;;;9.98;100.00;101900.91;4919337;29;20051;-79
2023/05/31 04:33:38;;;;;;;12.55;9.73;;;;;;;10.04;100.00;101901.88;4915245;29;20032;-91
2023/05/31 04:36:08;;;;;;;16.50;10.70;;;;;;;10.07;100.00;101909.75;4894405;29;20044;-78
2023/05/31 04:38:34;;;;;;;13.70;9.75;;;;;;;10.15;100.00;101907.22;4906501;29;20048;-80
2023/05/31 04:41:01;;;;;;;19.98;10.65;;;;;;;10.20;100.00;101907.31;4901818;29;20046;-83
2023/05/31 04:43:27;;;;;;;15.43;10.00;;;;;;;10.26;100.00;101908.25;4917700;29;20484;-80
2023/05/31 04:45:55;;;;;;;15.02;10.55;;;;;;;10.34;100.00;101910.06;4901417;29;20500;-79
2023/05/31 04:48:22;;;;;;;17.42;10.30;;;;;;;10.38;100.00;101912.78;4900991;29;20048;-78
2023/05/31 04:50:49;;;;;;;13.18;9.48;;;;;;;10.43;100.00;101912.84;4909096;29;20443;-79
2023/05/31 04:53:15;;;;;;;17.25;9.38;;;;;;;10.44;100.00;101914.59;4908814;29;20067;-78
2023/05/31 04:55:42;;;;;;;13.43;10.23;;;;;;;10.52;100.00;101912.97;4929918;29;20286;-78
2023/05/31 04:58:08;;;;;;;14.90;10.20;;;;;;;10.58;100.00;101920.88;4919105;29;20079;-83
2023/05/31 05:00:36;;;;;;;13.85;9.38;;;;;;;10.64;100.00;101913.94;4902717;29;20041;-79
2023/05/31 05:03:03;;;;;;;12.95;8.50;;;;;;;10.71;100.00;101916.66;4899834;29;20048;-80
2023/05/31 05:05:30;;;;;;;16.02;10.57;;;;;;;10.78;100.00;101912.38;4913187;29;20072;-80
2023/05/31 05:08:02;;;;;;;15.45;8.63;;;;;;;10.82;100.00;101919.41;4941070;29;20048;-78
2023/05/31 05:10:32;;;;;;;18.17;10.90;;;;;;;10.88;100.00;101918.56;4938048;29;20058;-82
2023/05/31 05:12:59;;;;;;;15.35;10.02;;;;;;;10.92;100.00;101909.88;4904246;29;20031;-87
2023/05/31 05:15:29;;;;;;;13.68;9.52;;;;;;;10.98;100.00;101919.56;4884312;29;20040;-79
2023/05/31 05:17:56;;;;;;;18.40;9.13;;;;;;;10.99;100.00;101919.56;4899632;29;20040;-78
2023/05/31 05:20:24;;;;;;;12.45;10.32;;;;;;;11.02;100.00;101921.34;5792699;23;20106;-78
2023/05/31 05:22:52;;;;;;;15.55;8.40;;;;;;;11.05;100.00;101916.97;4892122;29;20044;-79
2023/05/31 05:26:05;;;;;;;19.83;9.55;;;;;;;11.11;100.00;101926.66;4916165;29;20399;-79
2023/05/31 05:28:44;;;;;;;19.33;10.02;;;;;;;11.16;100.00;101919.72;4885083;29;20056;-78
2023/05/31 05:31:30;;;;;;;10.80;8.18;;;;;;;11.24;100.00;101915.41;4882869;29;20049;-79
2023/05/31 05:34:17;;;;;;;18.42;9.15;;;;;;;11.29;100.00;101914.56;4903022;29;20044;-79
2023/05/31 05:36:47;;;;;;;13.90;8.63;;;;;;;11.30;100.00;101925.06;4897418;29;20049;-78
2023/05/31 05:39:34;;;;;;;13.77;10.05;;;;;;;11.34;100.00;101921.63;4900313;29;20079;-80
2023/05/31 05:42:01;;;;;;;15.00;9.43;;;;;;;11.39;100.00;101925.16;4904091;29;20048;-79
2023/05/31 05:44:27;;;;;;;13.63;9.90;;;;;;;11.49;100.00;101920.00;4901641;29;20054;-81
2023/05/31 05:46:54;;;;;;;17.08;9.43;;;;;;;11.55;100.00;101914.78;4896968;29;20052;-79
2023/05/31 05:50:32;;;;;;;15.18;9.00;;;;;;;11.62;100.00;101913.97;4882034;29;20049;-79
2023/05/31 05:53:01;;;;;;;20.48;9.68;;;;;;;11.67;100.00;101914.00;4900877;29;20132;-78
2023/05/31 05:55:52;;;;;;;9.85;7.95;;;;;;;11.71;100.00;101923.66;4883550;29;20138;-79
2023/05/31 05:58:25;;;;;;;15.77;9.48;;;;;;;11.77;99.75;101925.41;4882492;29;20052;-78
2023/05/31 06:01:20;;;;;;;18.83;9.13;;;;;;;11.83;99.38;101923.72;4897511;29;20455;-78
2023/05/31 06:04:02;;;;;;;14.23;9.10;;;;;;;11.96;98.60;101922.06;4897421;29;20452;-78
2023/05/31 06:07:09;;;;;;;11.45;7.93;;;;;;;12.11;97.61;101923.91;4897405;29;20155;-78
2023/05/31 06:09:56;;;;;;;10.75;7.22;;;;;;;12.19;96.78;101910.81;4897006;29;20076;-79
2023/05/31 06:13:21;;;;;;;15.95;8.93;;;;;;;12.31;96.09;101912.63;4896727;29;20140;-79
2023/05/31 06:16:08;;;;;;;11.50;7.18;;;;;;;12.44;94.92;101917.06;4884610;29;20048;-79
2023/05/31 07:55:43;;;;;;;5.07;3.25;;;;;;;22.80;46.22;101873.59;5237929;23;20075;-79
2023/05/31 07:58:11;;;;;;;6.55;3.45;;;;;;;23.45;43.85;101877.13;4905579;29;20368;-80
2023/05/31 08:00:39;;;;;;;5.72;2.92;;;;;;;24.21;41.71;101878.19;4935272;29;20055;-80
2023/05/31 08:03:06;;;;;;;6.00;2.95;;;;;;;24.19;39.46;101864.91;4935625;29;20118;-91
2023/05/31 08:05:33;;;;;;;5.22;3.15;;;;;;;23.83;40.81;101870.13;4934903;29;20095;-80
2023/05/31 08:08:00;;;;;;;5.82;2.80;;;;;;;24.48;40.35;101876.03;4938213;29;20043;-79
2023/05/31 08:10:26;;;;;;;4.57;2.95;;;;;;;25.13;38.59;101867.50;4907624;29;20039;-80
2023/05/31 08:12:54;;;;;;;5.20;3.35;;;;;;;25.49;37.70;101868.38;4928412;29;20075;-83
2023/05/31 08:15:20;;;;;;;8.85;3.08;;;;;;;25.45;38.21;101864.13;4928568;29;20086;-80
2023/05/31 08:17:47;;;;;;;3.78;2.75;;;;;;;25.91;37.26;101864.34;4939678;29;20040;-79
2023/05/31 08:20:16;;;;;;;5.05;2.85;;;;;;;26.05;36.57;101864.47;5005058;23;20050;-80
2023/05/31 08:22:44;;;;;;;3.97;2.72;;;;;;;26.70;36.37;101860.81;4861019;29;20132;-81
2023/05/31 08:25:13;;;;;;;6.65;2.70;;;;;;;27.22;34.45;101858.72;4860846;29;20045;-82
2023/05/31 08:27:41;;;;;;;7.50;2.72;;;;;;;27.72;34.26;101854.75;4844647;29;20132;-80
2023/05/31 08:30:12;;;;;;;8.35;2.72;;;;;;;28.12;32.31;101853.22;4860097;29;20046;-82
2023/05/31 08:32:40;;;;;;;4.15;1.90;;;;;;;28.44;32.33;101861.03;4847046;29;20147;-84
2023/05/31 08:35:08;;;;;;;3.80;2.13;;;;;;;28.63;31.01;101852.59;4859691;29;20113;-81
2023/05/31 08:37:37;;;;;;;4.75;2.83;;;;;;;28.78;30.87;101854.28;4861377;29;20049;-81
2023/05/31 08:40:06;;;;;;;7.50;2.30;;;;;;;28.72;30.64;101865.47;4859125;29;20045;-80
2023/05/31 08:42:51;;;;;;;2.85;2.30;;;;;;;28.23;31.14;101856.94;4863449;29;20079;-83
2023/05/31 08:45:19;;;;;;;3.45;2.13;;;;;;;28.87;30.50;101856.34;4860657;29;20045;-86
2023/05/31 08:48:07;;;;;;;4.13;2.55;;;;;;;29.47;28.53;101847.84;4875974;29;20051;-80
2023/05/31 08:50:35;;;;;;;5.35;2.05;;;;;;;29.58;29.39;101839.00;4852667;29;20056;-80
2023/05/31 08:53:03;;;;;;;5.45;2.35;;;;;;;29.46;28.24;101848.81;4860468;29;20053;-85
2023/05/31 08:55:31;;;;;;;3.05;1.88;;;;;;;29.67;27.81;101839.22;4875543;29;20382;-80
2023/05/31 08:57:58;;;;;;;3.92;2.05;;;;;;;29.88;27.56;101844.03;4857828;29;20076;-82
2023/05/31 09:00:25;;;;;;;5.55;2.22;;;;;;;29.92;26.97;101833.88;4859814;29;20049;-80
2023/05/31 09:02:52;;;;;;;7.25;2.42;;;;;;;29.61;28.45;101836.94;4871525;29;20121;-80
2023/05/31 09:05:19;;;;;;;8.13;1.73;;;;;;;29.98;27.98;101828.06;4842337;29;20059;-83
2023/05/31 09:07:47;;;;;;;3.20;2.08;;;;;;;30.77;27.04;101830.31;4856307;29;20076;-85
2023/05/31 09:10:15;;;;;;;3.38;1.65;;;;;;;31.71;25.66;101828.47;4859580;29;20120;-81
2023/05/31 09:12:43;;;;;;;4.68;1.40;;;;;;;32.28;24.96;101823.84;4858251;29;20041;-86
2023/05/31 09:15:14;;;;;;;4.18;2.15;;;;;;;32.84;24.32;101824.59;4855574;29;20444;-79
2023/05/31 09:17:45;;;;;;;6.05;2.30;;;;;;;32.54;23.86;101818.09;4853317;29;20154;-82
2023/05/31 09:20:12;;;;;;;7.72;2.63;;;;;;;32.44;25.37;101827.97;4866214;29;20049;-88
2023/05/31 09:22:39;;;;;;;5.72;2.10;;;;;;;33.27;23.65;101822.78;4863994;29;20386;-80
2023/05/31 09:25:06;;;;;;;5.25;1.98;;;;;;;33.99;23.70;101823.66;4828562;29;20501;-89
2023/05/31 09:27:38;;;;;;;24.48;4.38;;;;;;;33.40;22.87;101820.72;4845218;29;20045;-81
2023/05/31 09:30:14;;;;;;;16.70;2.90;;;;;;;33.67;23.06;101824.66;4812495;29;20413;-79
2023/05/31 09:32:41;;;;;;;2.85;2.10;;;;;;;32.88;22.83;101819.78;4847993;29;20045;-81
2023/05/31 09:35:15;;;;;;;3.55;2.22;;;;;;;33.15;23.36;101822.84;4849891;29;20050;-81
2023/05/31 09:37:50;;;;;;;7.45;1.98;;;;;;;33.82;22.12;101816.16;4830393;29;20049;-84
2023/05/31 09:40:26;;;;;;;3.05;1.65;;;;;;;33.91;22.08;101818.94;4840919;29;20068;-81
2023/05/31 09:43:00;;;;;;;4.97;2.72;;;;;;;34.03;22.37;101813.34;4857961;29;20041;-80
2023/05/31 09:45:28;;;;;;;3.70;1.52;;;;;;;33.68;22.29;101812.81;4848315;29;20057;-81
2023/05/31 09:47:56;;;;;;;3.97;1.77;;;;;;;33.92;22.40;101815.22;4841909;29;20041;-83
2023/05/31 09:50:24;;;;;;;2.58;1.90;;;;;;;34.64;21.68;101809.59;4842071;29;20382;-81
2023/05/31 09:52:57;;;;;;;5.78;1.90;;;;;;;34.28;20.73;101807.38;4841469;29;20465;-83
2023/05/31 09:55:24;;;;;;;1.75;1.65;;;;;;;35.06;21.83;101800.25;4833893;29;20493;-88
2023/05/31 09:57:55;;;;;;;3.45;2.30;;;;;;;35.78;20.72;101800.53;4856736;29;20054;-87
2023/05/31 10:00:22;;;;;;;1.98;1.83;;;;;;;36.13;20.62;101800.75;4862012;29;20084;-80
2023/05/31 10:02:51;;;;;;;2.80;1.95;;;;;;;35.78;20.73;101795.94;4841469;29;20073;-81
2023/05/31 10:05:20;;;;;;;6.47;2.25;;;;;;;34.57;21.48;101798.41;4843310;29;20049;-84
2023/05/31 10:07:50;;;;;;;3.95;1.90;;;;;;;34.67;21.64;101794.81;4827846;29;20121;-81
2023/05/31 10:10:20;;;;;;;6.07;2.10;;;;;;;34.79;21.69;101797.25;4831514;29;20056;-85
2023/05/31 10:12:55;;;;;;;4.00;2.35;;;;;;;35.55;20.82;101792.78;4851813;29;20052;-94
2023/05/31 10:15:29;;;;;;;7.40;2.70;;;;;;;35.70;20.71;101786.84;4848723;29;20051;-83
2023/05/31 10:20:50;;;;;;;3.10;1.70;;;;;;;33.67;21.43;101793.97;4953581;23;20596;-82
2023/05/31 10:23:24;;;;;;;5.70;2.20;;;;;;;33.83;21.98;101783.44;4930964;29;20122;-85
2023/05/31 10:26:09;;;;;;;2.80;1.48;;;;;;;34.39;21.66;101789.25;4906767;29;20044;-81
2023/05/31 10:28:55;;;;;;;2.95;1.60;;;;;;;35.32;20.48;101778.66;4897602;29;20056;-82
2023/05/31 10:31:25;;;;;;;4.57;2.00;;;;;;;35.25;21.01;101782.97;4915108;29;20468;-83
2023/05/31 10:33:57;;;;;;;3.30;1.77;;;;;;;35.22;20.52;101777.84;4938117;29;20053;-81
2023/05/31 10:36:23;;;;;;;3.28;1.70;;;;;;;35.71;20.45;101770.34;4926138;29;20055;-81
2023/05/31 10:39:06;;;;;;;2.40;2.08;;;;;;;35.77;20.11;101775.19;4932621;29;20047;-84
2023/05/31 10:41:43;;;;;;;2.40;1.25;;;;;;;36.46;19.47;101774.69;4911848;29;20475;-81
2023/05/31 10:44:19;;;;;;;2.95;1.65;;;;;;;35.09;20.03;101767.28;4906985;29;20443;-82
2023/05/31 10:46:50;;;;;;;4.68;1.63;;;;;;;34.91;20.69;101768.03;4908950;29;20040;-82
2023/05/31 10:49:18;;;;;;;4.05;1.88;;;;;;;35.47;20.36;101770.88;4934825;29;20398;-83
2023/05/31 10:51:46;;;;;;;4.00;1.83;;;;;;;35.91;20.03;101767.50;4913783;29;20431;-81
2023/05/31 10:54:27;;;;;;;4.03;1.88;;;;;;;36.52;20.22;101760.44;4912643;29;20032;-81
2023/05/31 10:56:55;;;;;;;2.95;1.85;;;;;;;36.51;19.08;101756.00;4926477;29;20505;-81
2023/05/31 10:59:23;;;;;;;3.22;1.73;;;;;;;36.58;19.18;101748.03;4915486;29;20427;-87
2023/05/31 11:01:51;;;;;;;2.55;1.48;;;;;;;36.50;19.17;101747.97;4898348;29;20074;-80
2023/05/31 11:04:26;;;;;;;4.78;2.20;;;;;;;36.56;19.17;101753.66;4911007;29;20074;-82
2023/05/31 11:06:55;;;;;;;5.82;2.17;;;;;;;36.92;19.12;101748.13;4909142;29;20130;-82
2023/05/31 11:09:23;;;;;;;1.70;1.38;;;;;;;37.30;17.82;101739.63;4914911;29;20482;-87
2023/05/31 11:11:50;;;;;;;1.67;1.15;;;;;;;37.00;18.60;101743.72;4929308;29;20047;-82
2023/05/31 11:14:16;;;;;;;4.03;1.25;;;;;;;37.03;18.45;101738.81;4900721;29;20103;-83
2023/05/31 11:16:46;;;;;;;4.03;1.83;;;;;;;37.10;18.28;101727.25;4933897;29;20048;-85
2023/05/31 11:19:18;;;;;;;2.33;1.50;;;;;;;36.68;18.68;101734.31;4908620;29;20055;-81
2023/05/31 11:22:06;;;;;;;;;;;;;;;36.78;18.57;101729.59;4901805;29;20044;-81
2023/05/31 11:24:52;;;;;;;3.58;1.77;;;;;;;36.95;18.42;101721.53;4914679;29;19927;-82
2023/05/31 11:27:22;;;;;;;4.57;1.67;;;;;;;37.21;18.54;101716.88;4910426;29;20127;-82
2023/05/31 11:29:51;;;;;;;4.90;1.77;;;;;;;37.21;18.85;101716.00;4895231;29;20064;-84
2023/05/31 11:32:42;;;;;;;2.28;1.70;;;;;;;37.51;18.29;101717.38;4913647;29;20119;-82
2023/05/31 11:35:16;;;;;;;3.47;1.58;;;;;;;36.85;18.79;101714.31;4917182;29;20074;-81
2023/05/31 11:37:44;;;;;;;1.83;1.57;;;;;;;36.52;19.28;101711.34;4894899;29;20438;-81
2023/05/31 11:40:15;;;;;;;2.38;1.50;;;;;;;36.53;19.21;101709.47;4907845;29;20095;-82
2023/05/31 11:42:44;;;;;;;2.13;1.25;;;;;;;36.28;19.47;101714.69;4922359;29;20040;-88
2023/05/31 11:45:14;;;;;;;2.72;1.77;;;;;;;36.36;19.76;101711.22;4922535;29;20114;-91
2023/05/31 11:48:31;;;;;;;2.42;1.42;;;;;;;35.29;20.00;101700.00;4903663;29;20049;-81
2023/05/31 11:50:58;;;;;;;4.65;1.73;;;;;;;33.51;21.43;101702.19;4924457;29;20044;-82
2023/05/31 11:53:27;;;;;;;4.03;1.45;;;;;;;32.66;22.24;101697.75;4924343;29;20131;-87
2023/05/31 11:55:54;;;;;;;2.42;1.73;;;;;;;32.62;22.30;101692.72;4900866;29;20441;-83
2023/05/31 11:58:22;;;;;;;2.50;1.33;;;;;;;33.62;21.40;101688.47;4905370;29;20060;-84
2023/05/31 12:00:52;;;;;;;4.45;1.27;;;;;;;34.76;20.70;101682.47;4907623;29;20048;-86
2023/05/31 12:03:20;;;;;;;4.97;1.48;;;;;;;35.88;19.97;101688.78;4910203;29;20040;-89
2023/05/31 12:05:52;;;;;;;4.00;1.17;;;;;;;37.04;19.16;101682.34;4902071;29;20041;-82
2023/05/31 12:08:18;;;;;;;3.13;1.27;;;;;;;38.13;18.21;101686.03;4896328;29;20055;-84
2023/05/31 12:10:46;;;;;;;4.32;0.95;;;;;;;38.17;17.90;101678.38;4899332;29;20044;-82
2023/05/31 12:13:16;;;;;;;5.05;1.48;;;;;;;38.09;17.56;101679.22;4878807;29;20584;-82
2023/05/31 12:15:43;;;;;;;4.22;2.05;;;;;;;38.12;17.48;101676.13;4917070;29;20064;-83
2023/05/31 12:18:10;;;;;;;3.17;1.33;;;;;;;38.88;17.08;101665.78;4928995;29;20048;-89
2023/05/31 12:20:37;;;;;;;1.90;1.20;;;;;;;39.53;16.56;101666.53;4904672;29;20072;-83
2023/05/31 12:23:11;;;;;;;2.65;1.30;;;;;;;38.67;16.50;101657.28;4905213;29;20135;-82
2023/05/31 12:25:44;;;;;;;2.40;1.15;;;;;;;37.77;17.30;101661.75;4917281;29;20040;-81
2023/05/31 12:28:11;;;;;;;1.77;0.95;;;;;;;37.69;17.82;101654.41;4904433;29;20044;-82
2023/05/31 12:30:49;;;;;;;2.63;1.27;;;;;;;38.15;17.01;101655.78;4901788;29;20059;-82
2023/05/31 12:33:17;;;;;;;3.88;1.60;;;;;;;38.27;17.23;101650.88;4883193;29;20044;-83
2023/05/31 12:35:48;;;;;;;4.07;1.48;;;;;;;38.00;17.64;101642.81;4902497;29;20499;-91
2023/05/31 12:38:15;;;;;;;2.22;1.38;;;;;;;37.97;17.76;101643.19;4882106;29;20155;-82
2023/05/31 12:40:43;;;;;;;1.85;1.35;;;;;;;38.50;17.41;101640.03;4900880;29;20052;-90
2023/05/31 12:43:14;;;;;;;3.85;1.58;;;;;;;38.55;17.66;101634.91;4900472;29;20119;-85
2023/05/31 12:45:41;;;;;;;2.70;1.35;;;;;;;39.08;16.85;101642.63;4894435;29;20055;-86
2023/05/31 12:48:10;;;;;;;1.90;1.20;;;;;;;39.65;16.71;101639.56;4883878;29;20051;-82
2023/05/31 12:50:37;;;;;;;4.07;1.92;;;;;;;39.82;16.39;101637.56;4899582;29;20044;-88
2023/05/31 12:53:08;;;;;;;2.92;1.83;;;;;;;39.40;16.34;101622.44;4909865;29;20123;-84
2023/05/31 12:55:34;;;;;;;3.10;1.20;;;;;;;39.67;16.39;101625.69;4913007;29;20036;-92
2023/05/31 12:58:01;;;;;;;4.40;1.70;;;;;;;39.61;16.66;101624.50;4915914;29;20536;-83
2023/05/31 13:00:27;;;;;;;3.63;2.28;;;;;;;39.45;16.18;101619.13;4913888;29;20666;-81
2023/05/31 13:02:54;;;;;;;4.75;1.50;;;;;;;38.81;17.21;101626.47;4884566;29;20177;-81
2023/05/31 13:05:21;;;;;;;2.65;1.38;;;;;;;39.05;17.17;101617.28;4919564;29;20068;-81
2023/05/31 13:07:47;;;;;;;3.78;3.22;;;;;;;38.94;17.54;101620.41;4889210;29;20133;-80
2023/05/31 13:10:14;;;;;;;3.28;1.70;;;;;;;38.57;17.41;101627.41;4899683;29;20258;-81
2023/05/31 13:12:40;;;;;;;1.45;1.35;;;;;;;38.79;17.49;101619.50;4898292;29;20047;-80